Time;durP1;ratioP1;P1;durP2;ratioP2;P2;SDS_P1;SDS_P2;PMS_P1;PMS_P2;Temp;Humidity;BMP_temperature;BMP_pressure;BME280_temperature;BME280_humidity;BME280_pressure;Samples;Min_cycle;Max_cycle;Signal;HPM_P1;HPM_P2
2022/07/17 00:01:27;;;;;;;4.35;3.45;;;;;;;18.06;68.85;99796.84;1826849;77;21064;-74
2022/07/17 00:03:54;;;;;;;6.95;3.87;;;;;;;18.07;68.99;99794.98;1808121;77;21091;-76
2022/07/17 00:06:21;;;;;;;9.20;4.00;;;;;;;18.00;69.26;99793.69;1811821;78;21013;-75
2022/07/17 00:08:48;;;;;;;7.60;3.90;;;;;;;17.96;69.36;99794.31;1810552;79;21014;-75
2022/07/17 00:11:14;;;;;;;5.50;3.80;;;;;;;17.93;69.72;99807.67;1813144;77;21098;-75
2022/07/17 00:13:42;;;;;;;9.33;4.25;;;;;;;17.89;70.14;99807.80;1814373;79;20994;-76
2022/07/17 00:16:09;;;;;;;5.95;3.52;;;;;;;17.84;70.27;99796.33;1814467;78;20998;-75
2022/07/17 00:18:37;;;;;;;5.12;4.22;;;;;;;17.83;70.36;99795.19;1811897;78;21029;-79
2022/07/17 00:21:04;;;;;;;5.67;3.60;;;;;;;17.82;70.79;99797.03;1802667;77;22062;-77
2022/07/17 00:23:31;;;;;;;5.70;3.02;;;;;;;17.87;70.60;99803.97;1791029;79;21150;-77
2022/07/17 00:25:57;;;;;;;5.85;3.17;;;;;;;17.97;70.20;99794.10;1799391;78;21049;-78
2022/07/17 00:28:25;;;;;;;5.60;3.67;;;;;;;17.95;69.78;99799.40;1820980;78;21037;-75
2022/07/17 00:30:51;;;;;;;4.35;2.85;;;;;;;17.92;69.45;99800.63;1826730;78;21045;-79
2022/07/17 00:33:18;;;;;;;5.47;3.40;;;;;;;17.90;69.30;99789.27;1829971;78;21013;-77
2022/07/17 00:35:44;;;;;;;7.37;3.37;;;;;;;17.89;69.25;99790.33;1827781;77;21120;-80
2022/07/17 00:38:11;;;;;;;5.15;3.45;;;;;;;17.87;69.58;99790.54;1844049;77;21069;-76
2022/07/17 00:40:38;;;;;;;3.42;2.95;;;;;;;17.87;69.39;99779.79;1824351;78;21017;-76
2022/07/17 00:43:05;;;;;;;6.15;3.70;;;;;;;17.86;69.37;99775.97;1825376;78;21098;-76
2022/07/17 00:45:31;;;;;;;5.55;3.87;;;;;;;17.86;69.50;99780.81;1819631;78;21077;-76
2022/07/17 00:48:00;;;;;;;4.92;3.75;;;;;;;17.88;69.59;99765.83;1810681;78;21137;-74
2022/07/17 00:50:38;;;;;;;7.42;3.85;;;;;;;17.88;69.83;99765.30;1824575;78;21454;-74
2022/07/17 00:53:04;;;;;;;9.65;3.77;;;;;;;17.96;69.86;99776.84;1809485;78;21084;-75
2022/07/17 00:55:31;;;;;;;6.37;3.30;;;;;;;18.04;69.84;99775.23;1818646;78;21018;-78
2022/07/17 00:58:00;;;;;;;3.90;3.37;;;;;;;17.98;69.85;99794.42;1824736;78;21002;-77
2022/07/17 01:00:26;;;;;;;5.65;3.35;;;;;;;17.88;70.31;99796.20;1805070;78;21109;-73
2022/07/17 01:02:53;;;;;;;4.20;3.25;;;;;;;17.80;70.75;99782.98;1805541;78;21045;-77
2022/07/17 01:05:21;;;;;;;3.75;3.40;;;;;;;17.74;70.88;99771.77;1825748;78;21044;-77
2022/07/17 01:07:47;;;;;;;3.40;2.90;;;;;;;17.69;70.95;99762.16;1825828;78;21026;-77
2022/07/17 01:10:16;;;;;;;3.70;3.15;;;;;;;17.68;70.85;99772.09;1815989;77;21239;-77
2022/07/17 01:12:42;;;;;;;4.80;3.00;;;;;;;17.66;70.84;99774.17;1814842;78;21532;-77
2022/07/17 01:15:10;;;;;;;2.62;2.42;;;;;;;17.73;70.89;99776.84;1814088;78;20988;-75
2022/07/17 01:17:36;;;;;;;3.08;2.75;;;;;;;17.78;70.65;99772.98;1811618;78;21014;-77
2022/07/17 01:20:06;;;;;;;3.98;3.27;;;;;;;17.76;71.07;99771.55;1824048;78;21565;-75
2022/07/17 01:22:33;;;;;;;5.47;3.47;;;;;;;17.71;71.34;99765.98;1821390;78;21095;-76
2022/07/17 01:25:00;;;;;;;7.12;3.87;;;;;;;17.66;71.41;99750.00;1802940;78;21800;-76
2022/07/17 01:27:27;;;;;;;7.22;3.65;;;;;;;17.62;71.42;99743.94;1798012;78;21042;-77
2022/07/17 01:29:56;;;;;;;4.80;3.60;;;;;;;17.59;71.64;99755.09;1804278;79;21077;-78
2022/07/17 01:32:40;;;;;;;4.17;2.70;;;;;;;17.54;71.73;99758.93;1801392;79;20993;-77
2022/07/17 01:35:09;;;;;;;5.25;3.12;;;;;;;17.60;71.50;99756.75;1817069;78;20993;-77
2022/07/17 01:37:37;;;;;;;4.90;3.17;;;;;;;17.64;71.43;99754.76;1812519;78;21564;-77
2022/07/17 01:40:05;;;;;;;3.85;3.42;;;;;;;17.59;71.66;99765.84;1803239;78;20998;-79
2022/07/17 01:42:31;;;;;;;5.78;3.52;;;;;;;17.53;71.68;99758.64;1806827;78;20999;-77
2022/07/17 01:44:58;;;;;;;4.62;3.72;;;;;;;17.48;71.99;99754.73;1812591;79;21077;-75
2022/07/17 01:47:24;;;;;;;3.70;3.40;;;;;;;17.44;72.05;99750.83;1814691;78;21033;-78
2022/07/17 01:49:54;;;;;;;3.72;3.10;;;;;;;17.42;72.48;99758.27;1808000;78;21057;-76
2022/07/17 01:52:21;;;;;;;4.50;3.20;;;;;;;17.49;72.31;99758.23;1779199;78;21523;-76
2022/07/17 01:54:48;;;;;;;3.47;3.00;;;;;;;17.52;72.05;99759.16;1804651;79;21018;-78
2022/07/17 01:57:14;;;;;;;4.55;3.20;;;;;;;17.51;71.93;99759.38;1811984;78;21478;-77
2022/07/17 01:59:41;;;;;;;3.90;2.67;;;;;;;17.48;71.91;99756.58;1813608;79;21528;-76
2022/07/17 02:02:07;;;;;;;3.92;3.00;;;;;;;17.47;71.98;99770.53;1814595;79;21742;-79
2022/07/17 02:04:35;;;;;;;5.05;3.10;;;;;;;17.45;72.02;99762.39;1814132;79;21053;-78
2022/07/17 02:07:02;;;;;;;2.83;2.62;;;;;;;17.42;72.29;99763.64;1813982;78;21029;-78
2022/07/17 02:09:29;;;;;;;4.20;3.02;;;;;;;17.46;72.47;99767.55;1814200;79;21001;-77
2022/07/17 02:11:56;;;;;;;4.05;2.70;;;;;;;17.52;72.24;99760.51;1807568;78;21056;-78
2022/07/17 02:14:23;;;;;;;4.03;3.33;;;;;;;17.48;72.46;99770.00;1835576;77;21957;-77
2022/07/17 02:16:50;;;;;;;7.25;3.10;;;;;;;17.41;72.85;99761.98;1813261;78;21014;-77
2022/07/17 02:19:18;;;;;;;5.20;3.17;;;;;;;17.37;72.96;99764.79;1793443;79;20958;-76
2022/07/17 02:21:44;;;;;;;5.30;2.87;;;;;;;17.33;73.29;99764.09;1813268;78;21069;-77
2022/07/17 02:24:10;;;;;;;5.53;3.17;;;;;;;17.35;73.55;99752.09;1814567;79;21046;-77
2022/07/17 02:26:38;;;;;;;4.37;3.00;;;;;;;17.41;73.39;99749.90;1813911;79;21195;-75
2022/07/17 02:29:04;;;;;;;3.55;2.98;;;;;;;17.38;73.62;99744.94;1819547;78;21014;-77
2022/07/17 02:31:31;;;;;;;4.10;3.40;;;;;;;17.35;73.62;99742.70;1824250;78;21001;-76
2022/07/17 02:33:59;;;;;;;4.45;3.30;;;;;;;17.32;73.57;99739.09;1821144;77;21063;-75
2022/07/17 02:36:26;;;;;;;3.52;2.67;;;;;;;17.28;73.38;99737.34;1817655;78;21001;-75
2022/07/17 02:38:52;;;;;;;4.10;3.00;;;;;;;17.26;73.39;99742.09;1827341;78;21134;-75
2022/07/17 02:41:19;;;;;;;3.72;3.05;;;;;;;17.33;73.26;99750.67;1827077;78;21013;-74
2022/07/17 02:43:47;;;;;;;5.83;3.37;;;;;;;17.30;73.53;99757.27;1825850;78;20993;-76
2022/07/17 02:46:13;;;;;;;4.25;2.70;;;;;;;17.22;73.93;99765.56;1804699;78;21509;-75
2022/07/17 02:48:41;;;;;;;5.62;3.95;;;;;;;17.15;74.21;99761.53;1823234;78;21016;-77
2022/07/17 02:51:09;;;;;;;6.55;3.02;;;;;;;17.08;74.12;99752.17;1823122;78;21216;-76
2022/07/17 02:53:35;;;;;;;4.37;3.12;;;;;;;17.17;74.08;99745.23;1824801;78;21056;-75
2022/07/17 02:56:03;;;;;;;5.20;2.98;;;;;;;17.20;73.65;99736.23;1802847;77;21042;-76
2022/07/17 02:58:29;;;;;;;5.35;3.55;;;;;;;17.21;73.46;99734.37;1823283;78;21435;-76
2022/07/17 03:00:56;;;;;;;7.30;3.65;;;;;;;17.22;73.21;99739.53;1826224;78;21049;-76
2022/07/17 03:03:22;;;;;;;4.42;3.62;;;;;;;17.23;73.09;99741.20;1823893;78;21080;-76
2022/07/17 03:05:49;;;;;;;4.87;3.52;;;;;;;17.22;73.12;99740.88;1825687;78;21041;-74
2022/07/17 03:08:16;;;;;;;4.95;2.37;;;;;;;17.23;73.08;99746.56;1823733;78;21469;-76
2022/07/17 03:10:43;;;;;;;6.55;3.08;;;;;;;17.27;73.06;99746.44;1824943;78;21490;-75
2022/07/17 03:13:10;;;;;;;4.90;3.15;;;;;;;17.35;72.84;99745.39;1824753;78;21064;-76
2022/07/17 03:15:37;;;;;;;5.53;3.55;;;;;;;17.33;72.79;99739.41;1825424;77;21081;-74
2022/07/17 03:18:04;;;;;;;5.80;3.60;;;;;;;17.31;72.55;99750.88;1825649;78;21500;-76
2022/07/17 03:20:31;;;;;;;6.95;4.25;;;;;;;17.27;72.76;99741.08;1804711;78;21034;-74
2022/07/17 03:22:57;;;;;;;6.35;4.17;;;;;;;17.26;72.61;99737.25;1825969;78;20994;-76
2022/07/17 03:25:25;;;;;;;6.83;5.00;;;;;;;17.25;72.50;99745.83;1825021;78;21026;-75
2022/07/17 03:27:51;;;;;;;8.63;4.80;;;;;;;17.24;72.46;99751.41;1826178;78;21239;-75
2022/07/17 03:30:19;;;;;;;5.30;4.42;;;;;;;17.31;72.23;99754.91;1824400;78;21084;-77
2022/07/17 03:32:45;;;;;;;5.28;4.40;;;;;;;17.37;72.11;99757.27;1827808;78;21533;-74
2022/07/17 03:35:12;;;;;;;7.22;4.30;;;;;;;17.32;72.37;99755.20;1826069;78;21080;-75
2022/07/17 03:37:43;;;;;;;5.58;4.30;;;;;;;17.28;72.37;99749.42;1807542;78;20994;-74
2022/07/17 03:40:10;;;;;;;6.47;4.83;;;;;;;17.26;72.33;99747.99;1827657;78;21877;-77
2022/07/17 03:42:37;;;;;;;5.95;3.75;;;;;;;17.25;72.19;99742.33;1808629;78;21647;-76
2022/07/17 03:45:06;;;;;;;4.65;3.83;;;;;;;17.22;72.11;99740.05;1804943;78;21540;-78
2022/07/17 03:47:33;;;;;;;4.47;3.15;;;;;;;17.20;72.14;99746.97;1791044;78;21089;-79
2022/07/17 03:49:59;;;;;;;6.12;3.35;;;;;;;17.26;71.79;99742.63;1811991;78;21062;-79
2022/07/17 03:52:26;;;;;;;7.62;4.00;;;;;;;17.30;71.62;99741.98;1822838;77;21815;-77
2022/07/17 03:54:53;;;;;;;8.70;3.72;;;;;;;17.27;71.63;99741.60;1808986;78;21528;-78
2022/07/17 03:57:20;;;;;;;7.50;3.70;;;;;;;17.23;71.79;99745.22;1820401;78;21500;-76
2022/07/17 03:59:46;;;;;;;6.67;3.60;;;;;;;17.16;71.79;99745.75;1823089;77;21025;-75
2022/07/17 04:02:12;;;;;;;8.15;3.70;;;;;;;17.17;71.99;99747.91;1819877;77;21068;-75
2022/07/17 04:04:39;;;;;;;5.10;3.33;;;;;;;17.13;72.21;99746.69;1805465;78;21238;-77
2022/07/17 04:07:06;;;;;;;7.45;4.17;;;;;;;17.11;72.44;99744.20;1825941;78;20978;-77
2022/07/17 04:09:32;;;;;;;5.33;3.62;;;;;;;17.18;72.54;99747.70;1814504;78;21699;-78
2022/07/17 04:11:59;;;;;;;7.95;4.28;;;;;;;17.24;72.25;99750.88;1807792;78;21044;-74
2022/07/17 04:14:25;;;;;;;6.08;4.05;;;;;;;17.21;72.37;99748.64;1809040;78;20989;-72
2022/07/17 04:16:52;;;;;;;7.17;4.92;;;;;;;17.21;72.38;99747.79;1819809;78;21063;-73
2022/07/17 04:19:18;;;;;;;6.28;4.45;;;;;;;17.22;72.29;99751.61;1816890;78;21060;-76
2022/07/17 04:21:45;;;;;;;7.87;4.50;;;;;;;17.23;72.34;99744.38;1814517;78;21048;-72
2022/07/17 04:24:12;;;;;;;5.78;4.22;;;;;;;17.26;72.25;99752.83;1812059;78;21346;-71
2022/07/17 04:26:38;;;;;;;7.15;4.42;;;;;;;17.30;71.94;99749.21;1819601;78;21072;-74
2022/07/17 04:29:06;;;;;;;3.37;3.00;;;;;;;17.38;71.80;99755.69;1816458;78;21065;-73
2022/07/17 04:31:33;;;;;;;6.62;3.37;;;;;;;17.59;71.32;99751.06;1800091;78;20998;-73
2022/07/17 04:34:00;;;;;;;6.70;3.50;;;;;;;17.66;70.68;99763.42;1787087;79;21592;-71
2022/07/17 04:36:26;;;;;;;4.08;3.35;;;;;;;17.79;70.36;99761.20;1788567;79;21081;-70
2022/07/17 04:38:53;;;;;;;4.58;2.80;;;;;;;17.95;69.37;99755.87;1803848;79;21136;-72
2022/07/17 04:41:20;;;;;;;5.28;3.17;;;;;;;18.07;68.19;99759.50;1799636;78;21137;-72
2022/07/17 04:43:46;;;;;;;6.37;4.47;;;;;;;18.18;67.83;99762.03;1808018;78;20998;-74
2022/07/17 04:46:13;;;;;;;4.58;2.80;;;;;;;18.34;67.71;99765.23;1742566;81;21085;-75
2022/07/17 04:48:39;;;;;;;3.35;2.77;;;;;;;18.49;67.35;99752.81;1756949;81;21047;-73
2022/07/17 04:51:06;;;;;;;4.00;3.12;;;;;;;18.60;66.83;99748.03;1803491;78;21001;-74
2022/07/17 04:53:33;;;;;;;3.30;3.02;;;;;;;18.73;65.49;99747.11;1796840;78;21218;-72
2022/07/17 04:56:00;;;;;;;4.35;2.90;;;;;;;18.84;65.03;99745.06;1810363;77;21291;-73
2022/07/17 04:58:26;;;;;;;4.62;3.30;;;;;;;18.94;64.83;99736.48;1811713;79;21041;-74
2022/07/17 05:00:53;;;;;;;4.12;2.90;;;;;;;19.03;63.79;99731.92;1805463;78;21037;-73
2022/07/17 05:03:20;;;;;;;4.78;3.08;;;;;;;19.14;63.23;99728.17;1808524;78;21822;-71
2022/07/17 05:05:46;;;;;;;5.33;3.20;;;;;;;19.21;62.44;99740.52;1793618;79;21747;-72
2022/07/17 05:08:14;;;;;;;6.80;3.52;;;;;;;19.29;62.58;99739.92;1803088;78;21046;-71
2022/07/17 05:10:41;;;;;;;6.25;3.40;;;;;;;19.41;62.36;99747.03;1811816;78;20998;-73
2022/07/17 05:13:07;;;;;;;3.58;3.08;;;;;;;19.48;60.98;99740.20;1813360;79;21491;-72
2022/07/17 05:15:34;;;;;;;5.33;2.50;;;;;;;19.50;60.84;99749.41;1810023;77;21042;-73
2022/07/17 05:18:02;;;;;;;5.85;3.00;;;;;;;19.51;60.53;99749.70;1807460;79;21074;-70
2022/07/17 05:20:29;;;;;;;3.95;3.00;;;;;;;19.50;59.65;99757.50;1785801;79;20939;-72
2022/07/17 05:22:56;;;;;;;4.15;2.60;;;;;;;19.49;59.40;99750.45;1813904;78;21001;-73
2022/07/17 05:25:23;;;;;;;3.80;2.25;;;;;;;19.51;59.31;99744.30;1813156;78;21018;-74
2022/07/17 05:27:49;;;;;;;4.87;2.65;;;;;;;19.59;58.91;99740.79;1813249;78;21209;-72
2022/07/17 05:30:16;;;;;;;3.12;2.15;;;;;;;19.70;58.37;99733.82;1827134;78;21041;-74
2022/07/17 05:32:43;;;;;;;3.85;2.40;;;;;;;19.82;57.50;99739.28;1829793;78;21005;-72
2022/07/17 05:35:10;;;;;;;3.60;2.47;;;;;;;19.86;55.98;99728.34;1825571;77;21020;-70
2022/07/17 05:37:36;;;;;;;4.08;2.45;;;;;;;19.88;56.59;99728.93;1789309;78;21071;-73
2022/07/17 05:40:06;;;;;;;4.60;2.45;;;;;;;19.90;55.93;99725.47;1784050;79;21477;-73
2022/07/17 05:42:32;;;;;;;4.80;2.25;;;;;;;19.89;55.31;99738.64;1769036;80;21148;-74
2022/07/17 05:44:59;;;;;;;3.72;2.30;;;;;;;19.86;55.36;99738.27;1769179;80;21110;-74
2022/07/17 05:47:26;;;;;;;3.70;2.45;;;;;;;19.81;55.45;99747.88;1754033;80;21027;-72
2022/07/17 05:49:53;;;;;;;4.20;2.10;;;;;;;19.77;55.74;99745.34;1738121;81;21119;-74
2022/07/17 05:52:19;;;;;;;3.22;2.45;;;;;;;19.78;55.70;99748.34;1750911;80;21008;-72
2022/07/17 05:54:46;;;;;;;7.10;3.17;;;;;;;19.76;55.59;99747.76;1754506;80;21195;-72
2022/07/17 05:57:12;;;;;;;3.70;2.58;;;;;;;19.71;56.13;99742.19;1780694;78;21048;-72
2022/07/17 05:59:39;;;;;;;7.95;2.72;;;;;;;19.71;56.78;99761.05;1797132;78;21008;-74
2022/07/17 06:02:05;;;;;;;3.00;2.42;;;;;;;19.70;57.10;99763.97;1774258;79;21047;-73
2022/07/17 06:04:32;;;;;;;4.75;2.77;;;;;;;19.68;57.42;99773.63;1799824;78;21057;-73
2022/07/17 06:06:59;;;;;;;6.03;2.92;;;;;;;19.58;57.52;99772.00;1798625;78;21111;-72
2022/07/17 06:09:25;;;;;;;5.12;3.17;;;;;;;19.44;58.30;99776.20;1784978;80;21048;-73
2022/07/17 06:11:52;;;;;;;4.65;3.05;;;;;;;19.33;59.05;99773.44;1799808;78;21101;-73
2022/07/17 06:14:18;;;;;;;4.78;3.17;;;;;;;19.25;59.49;99783.98;1778699;78;21117;-72
2022/07/17 06:16:46;;;;;;;3.75;2.45;;;;;;;19.18;59.35;99780.53;1795844;78;21011;-74
2022/07/17 06:19:12;;;;;;;4.22;2.92;;;;;;;19.10;58.81;99776.80;1781339;79;21213;-74
2022/07/17 06:21:39;;;;;;;3.00;2.47;;;;;;;19.00;59.14;99780.81;1770136;80;21050;-72
2022/07/17 06:24:06;;;;;;;3.77;2.52;;;;;;;18.92;59.62;99778.42;1780307;80;21021;-73
2022/07/17 06:26:32;;;;;;;8.93;5.28;;;;;;;18.85;59.81;99785.72;1753732;81;21068;-73
2022/07/17 06:28:59;;;;;;;8.93;3.65;;;;;;;18.86;59.87;99789.55;1774835;80;21082;-74
2022/07/17 06:31:26;;;;;;;8.50;4.47;;;;;;;18.75;60.26;99797.48;1768991;80;21235;-73
2022/07/17 06:33:52;;;;;;;5.85;4.22;;;;;;;18.56;60.68;99805.52;1768568;80;21038;-74
2022/07/17 06:36:18;;;;;;;9.00;4.15;;;;;;;18.40;61.13;99812.23;1771365;80;21479;-71
2022/07/17 06:38:45;;;;;;;6.85;5.17;;;;;;;18.22;61.61;99814.33;1778164;80;21084;-72
2022/07/17 06:41:12;;;;;;;11.95;7.65;;;;;;;18.07;62.19;99807.08;1755199;80;21050;-73
2022/07/17 06:43:39;;;;;;;4.67;3.27;;;;;;;18.02;62.61;99812.27;1766669;80;21137;-72
2022/07/17 06:46:06;;;;;;;4.85;3.92;;;;;;;17.96;62.56;99816.63;1773560;80;20964;-76
2022/07/17 06:48:33;;;;;;;10.90;5.90;;;;;;;17.93;62.91;99815.73;1763925;80;21025;-73
2022/07/17 06:51:00;;;;;;;9.78;5.97;;;;;;;17.96;63.09;99819.31;1763192;80;21301;-74
2022/07/17 06:53:26;;;;;;;4.72;3.65;;;;;;;17.97;63.31;99830.91;1763274;80;21105;-73
2022/07/17 06:55:53;;;;;;;7.05;3.70;;;;;;;17.93;62.80;99837.77;1761729;80;21159;-74
2022/07/17 06:58:19;;;;;;;5.58;3.60;;;;;;;17.82;62.69;99856.67;1762056;80;21013;-73
2022/07/17 07:00:45;;;;;;;6.62;3.27;;;;;;;17.68;62.76;99850.53;1768323;80;21014;-72
2022/07/17 07:03:12;;;;;;;4.62;2.55;;;;;;;17.63;63.00;99858.39;1769465;80;21085;-74
2022/07/17 07:05:39;;;;;;;5.53;2.92;;;;;;;17.65;62.93;99864.37;1763801;80;21073;-74
2022/07/17 07:08:05;;;;;;;3.37;2.40;;;;;;;17.59;62.95;99862.02;1773459;80;21287;-73
2022/07/17 07:10:32;;;;;;;3.00;2.55;;;;;;;17.48;63.35;99867.53;1769652;80;21530;-75
2022/07/17 07:12:58;;;;;;;3.65;2.25;;;;;;;17.43;63.45;99874.05;1757416;80;21514;-75
2022/07/17 07:15:26;;;;;;;3.80;2.33;;;;;;;17.36;63.68;99881.27;1776154;80;21092;-71
2022/07/17 07:17:54;;;;;;;2.20;2.00;;;;;;;17.29;64.00;99882.64;1770951;80;21014;-73
2022/07/17 07:20:21;;;;;;;2.00;1.80;;;;;;;17.30;64.22;99880.77;1760632;80;21138;-75
2022/07/17 07:22:47;;;;;;;3.02;1.85;;;;;;;17.34;64.36;99877.98;1763462;80;21057;-74
2022/07/17 07:25:14;;;;;;;2.30;2.00;;;;;;;17.37;64.34;99874.88;1760881;80;21002;-73
2022/07/17 07:27:42;;;;;;;3.45;2.33;;;;;;;17.39;64.19;99863.41;1814738;78;20962;-74
2022/07/17 07:30:10;;;;;;;2.55;1.77;;;;;;;17.42;64.30;99872.90;1805924;78;21014;-73
2022/07/17 07:32:38;;;;;;;3.27;1.80;;;;;;;17.44;64.23;99873.52;1803846;79;22103;-73
2022/07/17 07:35:06;;;;;;;3.35;2.40;;;;;;;17.36;64.37;99881.27;1808427;78;21123;-73
2022/07/17 07:37:35;;;;;;;11.95;2.98;;;;;;;17.29;64.58;99889.35;1806138;78;21013;-73
2022/07/17 07:40:02;;;;;;;3.00;2.30;;;;;;;17.26;64.77;99890.28;1820359;78;21040;-74
2022/07/17 07:42:29;;;;;;;3.33;2.30;;;;;;;17.25;64.98;99884.63;1809149;79;21042;-73
2022/07/17 07:44:56;;;;;;;2.62;1.90;;;;;;;17.30;65.19;99879.43;1812539;78;21088;-74
2022/07/17 07:47:22;;;;;;;3.37;1.92;;;;;;;17.36;64.93;99879.11;1810880;78;21506;-74
2022/07/17 07:49:48;;;;;;;5.15;2.50;;;;;;;17.41;64.81;99880.66;1813259;78;21014;-74
2022/07/17 07:52:15;;;;;;;2.75;1.77;;;;;;;17.47;64.89;99884.67;1806601;78;21069;-74
2022/07/17 07:54:41;;;;;;;2.60;2.15;;;;;;;17.55;64.91;99889.52;1815856;78;20998;-73
2022/07/17 07:57:08;;;;;;;2.60;2.33;;;;;;;17.63;65.24;99892.78;1803360;77;21143;-75
2022/07/17 07:59:34;;;;;;;3.75;2.33;;;;;;;17.69;65.30;99891.12;1805896;79;21029;-76
2022/07/17 08:02:01;;;;;;;6.10;3.83;;;;;;;17.69;65.33;99887.94;1815180;79;20966;-77
2022/07/17 08:04:28;;;;;;;4.25;2.77;;;;;;;17.67;65.64;99883.30;1808071;78;21068;-75
2022/07/17 08:06:54;;;;;;;4.62;3.02;;;;;;;17.69;65.66;99883.91;1810372;79;21053;-71
2022/07/17 08:09:20;;;;;;;3.27;2.47;;;;;;;17.83;65.83;99886.55;1810043;78;21151;-75
2022/07/17 08:11:47;;;;;;;3.22;2.27;;;;;;;18.03;65.52;99879.78;1801720;79;21045;-73
2022/07/17 08:14:14;;;;;;;2.90;2.42;;;;;;;18.24;65.06;99884.84;1812264;79;21029;-74
2022/07/17 08:16:40;;;;;;;4.35;2.83;;;;;;;18.40;64.75;99878.66;1814427;78;21042;-74
2022/07/17 08:19:07;;;;;;;3.62;2.52;;;;;;;18.59;64.13;99885.77;1809031;78;21026;-75
2022/07/17 08:21:33;;;;;;;2.55;2.35;;;;;;;18.73;63.63;99889.72;1807485;78;21329;-74
2022/07/17 08:23:59;;;;;;;4.10;2.70;;;;;;;18.87;63.52;99884.56;1812255;79;21058;-74
2022/07/17 08:26:26;;;;;;;2.52;2.25;;;;;;;19.06;63.01;99884.11;1798995;78;21014;-74
2022/07/17 08:28:52;;;;;;;4.62;2.92;;;;;;;19.16;62.50;99880.41;1801430;79;21013;-73
2022/07/17 08:31:19;;;;;;;4.00;2.42;;;;;;;19.20;61.72;99887.50;1819068;78;21037;-74
2022/07/17 08:33:45;;;;;;;4.15;3.05;;;;;;;19.08;61.93;99889.28;1797855;78;21145;-72
2022/07/17 08:36:13;;;;;;;4.90;3.10;;;;;;;18.98;62.10;99887.08;1823140;77;21011;-74
2022/07/17 08:38:39;;;;;;;5.35;2.50;;;;;;;18.95;62.51;99876.23;1832300;77;21076;-74
2022/07/17 08:41:06;;;;;;;3.80;2.77;;;;;;;19.08;62.69;99873.13;1813888;78;21009;-74
2022/07/17 08:43:34;;;;;;;2.80;2.50;;;;;;;19.30;62.50;99868.17;1838157;77;20989;-74
2022/07/17 08:46:00;;;;;;;5.20;2.95;;;;;;;19.58;61.82;99873.86;1830668;77;21109;-75
2022/07/17 08:48:27;;;;;;;2.87;2.22;;;;;;;19.82;61.48;99867.33;1826360;77;21056;-74
2022/07/17 08:50:55;;;;;;;4.37;2.35;;;;;;;20.03;60.92;99872.23;1822347;77;21064;-75
2022/07/17 08:53:22;;;;;;;6.53;3.02;;;;;;;20.19;59.32;99871.31;1816701;78;21496;-73
2022/07/17 08:55:48;;;;;;;2.87;2.22;;;;;;;20.15;57.41;99874.98;1804504;77;21008;-73
2022/07/17 08:58:17;;;;;;;3.05;2.22;;;;;;;19.96;56.83;99870.67;1820856;77;21805;-74
2022/07/17 09:00:44;;;;;;;3.60;2.50;;;;;;;19.83;57.27;99867.08;1804571;78;21033;-74
2022/07/17 09:03:11;;;;;;;3.37;2.22;;;;;;;19.91;57.37;99867.30;1817464;77;21076;-72
2022/07/17 09:05:43;;;;;;;2.50;2.20;;;;;;;20.02;56.52;99859.79;1799215;78;21053;-73
2022/07/17 09:08:19;;;;;;;4.47;1.87;;;;;;;20.13;55.39;99866.84;1818991;78;20987;-73
2022/07/17 09:10:51;;;;;;;1.85;1.47;;;;;;;20.22;53.75;99862.75;1819894;78;21002;-74
2022/07/17 09:13:29;;;;;;;1.80;1.40;;;;;;;20.32;54.13;99863.55;1824834;77;21006;-72
2022/07/17 09:16:10;;;;;;;3.37;1.52;;;;;;;20.54;53.05;99861.17;1825144;78;20979;-74
2022/07/17 09:18:49;;;;;;;1.90;1.40;;;;;;;20.86;52.09;99862.25;1806414;77;21525;-74
2022/07/17 09:21:19;;;;;;;2.58;1.60;;;;;;;21.14;51.42;99856.17;1824851;77;21091;-72
2022/07/17 09:23:48;;;;;;;3.02;1.50;;;;;;;21.45;50.20;99860.95;1818426;78;21146;-74
2022/07/17 09:26:14;;;;;;;1.70;1.57;;;;;;;21.61;48.98;99861.55;1819939;77;21068;-72
2022/07/17 09:28:46;;;;;;;1.40;1.30;;;;;;;21.81;48.65;99858.48;1741057;78;21064;-74
2022/07/17 09:31:14;;;;;;;1.62;1.52;;;;;;;22.22;46.23;99862.52;1814221;77;21041;-80
2022/07/17 09:33:41;;;;;;;3.00;1.32;;;;;;;22.67;44.08;99854.95;1798516;78;21045;-80
2022/07/17 09:36:12;;;;;;;1.95;1.55;;;;;;;23.16;43.67;99864.70;1797514;78;21227;-80
2022/07/17 09:38:40;;;;;;;2.33;1.60;;;;;;;23.71;43.41;99869.25;1821476;77;21489;-80
2022/07/17 09:41:12;;;;;;;1.87;1.70;;;;;;;24.25;43.33;99859.59;1824713;78;21030;-82
2022/07/17 09:44:00;;;;;;;1.98;1.80;;;;;;;24.72;42.58;99857.09;1821372;78;21090;-80
2022/07/17 09:46:31;;;;;;;1.50;1.40;;;;;;;24.95;42.27;99856.98;1817573;78;21016;-82
2022/07/17 09:49:00;;;;;;;1.40;1.30;;;;;;;25.16;41.84;99852.51;1802166;78;21178;-79
2022/07/17 09:51:31;;;;;;;2.37;1.90;;;;;;;25.47;42.38;99842.66;1817909;78;21690;-81
2022/07/17 09:54:00;;;;;;;1.82;1.70;;;;;;;26.09;41.57;99847.81;1839825;77;21425;-81
2022/07/17 09:56:29;;;;;;;2.17;1.52;;;;;;;26.59;41.28;99843.56;1818336;77;21060;-82
2022/07/17 09:59:07;;;;;;;2.15;1.82;;;;;;;27.16;39.89;99839.42;1819410;78;21030;-81
2022/07/17 10:01:34;;;;;;;1.82;1.70;;;;;;;27.37;39.83;99840.23;1822945;78;21201;-81
2022/07/17 10:04:00;;;;;;;1.72;1.62;;;;;;;27.62;39.36;99852.97;1798969;78;21037;-82
2022/07/17 10:06:27;;;;;;;2.10;1.90;;;;;;;27.55;39.32;99836.91;1821089;78;21038;-81
2022/07/17 10:08:53;;;;;;;2.58;2.00;;;;;;;27.45;39.58;99838.31;1810845;78;21110;-81
2022/07/17 10:11:27;;;;;;;1.87;1.75;;;;;;;27.44;40.31;99831.21;1814511;77;21721;-79
2022/07/17 10:14:03;;;;;;;2.55;1.75;;;;;;;27.63;40.04;99833.59;1801744;78;21002;-82
2022/07/17 10:16:31;;;;;;;2.08;1.65;;;;;;;27.75;39.08;99829.17;1825649;78;20986;-80
2022/07/17 10:18:58;;;;;;;2.85;1.60;;;;;;;27.46;39.20;99833.92;1820356;78;21032;-81
2022/07/17 10:21:28;;;;;;;5.22;1.57;;;;;;;27.02;39.50;99840.55;1782717;78;21624;-80
2022/07/17 10:24:01;;;;;;;1.60;1.50;;;;;;;26.69;39.79;99840.02;1823421;78;21075;-82
2022/07/17 10:26:34;;;;;;;1.40;1.30;;;;;;;26.47;39.95;99838.91;1823410;78;21112;-77
2022/07/17 10:29:00;;;;;;;1.80;1.70;;;;;;;26.24;40.07;99829.34;1747657;81;21065;-82
2022/07/17 10:31:29;;;;;;;2.92;1.60;;;;;;;26.19;40.39;99827.97;1755796;81;21139;-81
2022/07/17 10:34:04;;;;;;;1.50;1.40;;;;;;;26.17;40.11;99817.34;1761178;81;21023;-79
2022/07/17 10:36:40;;;;;;;1.42;1.32;;;;;;;26.31;39.49;99816.30;1764914;81;21058;-80
2022/07/17 10:39:17;;;;;;;1.30;1.20;;;;;;;26.37;39.57;99817.92;1749612;81;22098;-81
2022/07/17 10:41:56;;;;;;;1.40;1.30;;;;;;;26.44;39.55;99820.37;1756897;81;21102;-81
2022/07/17 10:46:13;;;;;;;2.98;1.50;;;;;;;26.00;40.09;99816.23;1866753;76;23150;-81
2022/07/17 10:48:40;;;;;;;1.42;1.32;;;;;;;25.69;40.71;99818.83;1855393;77;21045;-81
2022/07/17 10:51:07;;;;;;;1.75;1.62;;;;;;;25.52;40.92;99819.58;1833654;77;21940;-80
2022/07/17 10:53:35;;;;;;;3.10;1.80;;;;;;;25.25;41.42;99821.88;1848299;76;20954;-79
2022/07/17 10:56:06;;;;;;;1.77;1.60;;;;;;;24.91;41.91;99824.88;1854734;77;21041;-80
2022/07/17 10:58:41;;;;;;;1.60;1.50;;;;;;;24.36;42.56;99817.06;1847121;77;20965;-79
2022/07/17 11:01:15;;;;;;;2.60;1.70;;;;;;;23.93;43.55;99825.05;1839425;77;21064;-82
2022/07/17 11:03:54;;;;;;;1.52;1.42;;;;;;;23.95;43.46;99820.18;1853264;77;21232;-79
2022/07/17 11:06:31;;;;;;;1.60;1.50;;;;;;;24.16;43.05;99814.98;1846606;77;21489;-79
2022/07/17 11:09:10;;;;;;;1.60;1.50;;;;;;;24.54;42.80;99809.94;1847738;77;21019;-78
2022/07/17 11:11:42;;;;;;;1.32;1.22;;;;;;;24.85;41.78;99804.20;1845372;77;21535;-79
2022/07/17 11:14:14;;;;;;;;;;;;;;;25.35;40.40;99809.43;1860308;77;21013;-80
2022/07/17 11:16:46;;;;;;;3.12;1.42;;;;;;;25.65;40.38;99815.01;1858370;77;21152;-80
2022/07/17 11:19:24;;;;;;;2.00;1.90;;;;;;;25.61;39.93;99819.87;1849464;77;21032;-80
2022/07/17 11:21:51;;;;;;;1.32;1.22;;;;;;;25.24;40.31;99818.87;1852469;77;21072;-79
2022/07/17 11:24:17;;;;;;;3.70;1.50;;;;;;;24.79;41.01;99817.47;1851098;77;21026;-77
2022/07/17 11:26:44;;;;;;;4.70;1.50;;;;;;;24.33;41.77;99819.77;1833623;77;21520;-81
2022/07/17 11:29:11;;;;;;;2.58;1.40;;;;;;;23.91;42.43;99818.54;1834180;77;21978;-80
2022/07/17 11:31:38;;;;;;;1.65;1.55;;;;;;;23.59;43.21;99832.49;1829289;77;21533;-79
2022/07/17 11:34:08;;;;;;;2.40;2.00;;;;;;;23.25;43.89;99836.09;1859187;77;21129;-81
2022/07/17 11:36:43;;;;;;;2.02;1.70;;;;;;;22.94;44.59;99841.02;1848587;77;21616;-79
2022/07/17 11:39:15;;;;;;;2.42;1.90;;;;;;;22.74;45.34;99835.30;1831472;77;21476;-77